sensor_id;sensor_type;location;lat;lon;timestamp;P1;durP1;ratioP1;P2;durP2;ratioP2
20391;SDS011;10355;53.688;10.078;2023-06-14T00:01:25;5.32;;;1.63;;
20391;SDS011;10355;53.688;10.078;2023-06-14T00:04:08;4.05;;;1.98;;
20391;SDS011;10355;53.688;10.078;2023-06-14T00:06:51;3.58;;;1.80;;
20391;SDS011;10355;53.688;10.078;2023-06-14T00:09:35;3.17;;;1.65;;
20391;SDS011;10355;53.688;10.078;2023-06-14T00:12:19;5.45;;;1.83;;
20391;SDS011;10355;53.688;10.078;2023-06-14T00:15:03;2.88;;;1.77;;
20391;SDS011;10355;53.688;10.078;2023-06-14T00:17:46;5.35;;;2.10;;
20391;SDS011;10355;53.688;10.078;2023-06-14T00:20:29;4.43;;;1.92;;
20391;SDS011;10355;53.688;10.078;2023-06-14T00:23:13;5.25;;;2.30;;
20391;SDS011;10355;53.688;10.078;2023-06-14T00:25:56;4.30;;;1.92;;
20391;SDS011;10355;53.688;10.078;2023-06-14T00:28:40;3.17;;;1.88;;
20391;SDS011;10355;53.688;10.078;2023-06-14T00:31:23;4.68;;;2.15;;
20391;SDS011;10355;53.688;10.078;2023-06-14T00:34:08;4.72;;;2.10;;
20391;SDS011;10355;53.688;10.078;2023-06-14T00:36:51;6.68;;;2.10;;
20391;SDS011;10355;53.688;10.078;2023-06-14T00:39:33;3.90;;;2.40;;
20391;SDS011;10355;53.688;10.078;2023-06-14T00:42:23;4.70;;;2.25;;
20391;SDS011;10355;53.688;10.078;2023-06-14T00:45:07;6.22;;;2.42;;
20391;SDS011;10355;53.688;10.078;2023-06-14T00:47:50;5.25;;;2.58;;
20391;SDS011;10355;53.688;10.078;2023-06-14T00:50:36;5.10;;;2.47;;
20391;SDS011;10355;53.688;10.078;2023-06-14T00:53:20;3.25;;;2.42;;
20391;SDS011;10355;53.688;10.078;2023-06-14T00:56:05;8.45;;;2.63;;
20391;SDS011;10355;53.688;10.078;2023-06-14T00:58:49;5.72;;;2.17;;
20391;SDS011;10355;53.688;10.078;2023-06-14T01:01:34;6.63;;;2.67;;
20391;SDS011;10355;53.688;10.078;2023-06-14T01:04:18;5.80;;;2.60;;
20391;SDS011;10355;53.688;10.078;2023-06-14T01:07:02;6.03;;;2.55;;
20391;SDS011;10355;53.688;10.078;2023-06-14T01:09:58;4.43;;;2.50;;
20391;SDS011;10355;53.688;10.078;2023-06-14T01:12:44;4.60;;;2.53;;
20391;SDS011;10355;53.688;10.078;2023-06-14T01:15:29;4.32;;;2.40;;
20391;SDS011;10355;53.688;10.078;2023-06-14T01:18:14;4.30;;;2.17;;
20391;SDS011;10355;53.688;10.078;2023-06-14T01:21:00;5.68;;;2.50;;
20391;SDS011;10355;53.688;10.078;2023-06-14T01:23:48;4.57;;;2.35;;
20391;SDS011;10355;53.688;10.078;2023-06-14T01:26:35;7.03;;;2.30;;
20391;SDS011;10355;53.688;10.078;2023-06-14T01:29:19;6.13;;;2.47;;
20391;SDS011;10355;53.688;10.078;2023-06-14T01:32:03;4.90;;;2.42;;
20391;SDS011;10355;53.688;10.078;2023-06-14T01:34:46;4.07;;;2.05;;
20391;SDS011;10355;53.688;10.078;2023-06-14T01:37:28;4.15;;;2.25;;
20391;SDS011;10355;53.688;10.078;2023-06-14T01:40:17;5.93;;;2.53;;
20391;SDS011;10355;53.688;10.078;2023-06-14T01:43:00;5.93;;;2.50;;
20391;SDS011;10355;53.688;10.078;2023-06-14T01:45:44;7.18;;;2.88;;
20391;SDS011;10355;53.688;10.078;2023-06-14T01:48:28;7.47;;;2.67;;
20391;SDS011;10355;53.688;10.078;2023-06-14T01:51:11;6.72;;;2.50;;
20391;SDS011;10355;53.688;10.078;2023-06-14T01:53:56;5.40;;;2.53;;
20391;SDS011;10355;53.688;10.078;2023-06-14T01:56:40;4.85;;;2.72;;
20391;SDS011;10355;53.688;10.078;2023-06-14T01:59:24;5.97;;;2.78;;
20391;SDS011;10355;53.688;10.078;2023-06-14T02:02:07;4.95;;;2.60;;
20391;SDS011;10355;53.688;10.078;2023-06-14T02:04:49;4.88;;;2.40;;
20391;SDS011;10355;53.688;10.078;2023-06-14T02:07:32;5.25;;;2.45;;
20391;SDS011;10355;53.688;10.078;2023-06-14T02:10:15;4.90;;;2.58;;
20391;SDS011;10355;53.688;10.078;2023-06-14T02:13:00;5.80;;;2.42;;
20391;SDS011;10355;53.688;10.078;2023-06-14T02:15:44;3.80;;;2.40;;
20391;SDS011;10355;53.688;10.078;2023-06-14T02:18:27;6.68;;;2.72;;
20391;SDS011;10355;53.688;10.078;2023-06-14T02:21:10;6.20;;;2.38;;
20391;SDS011;10355;53.688;10.078;2023-06-14T02:23:52;4.95;;;2.70;;
20391;SDS011;10355;53.688;10.078;2023-06-14T02:26:35;4.00;;;2.65;;
20391;SDS011;10355;53.688;10.078;2023-06-14T02:29:20;4.20;;;2.40;;
20391;SDS011;10355;53.688;10.078;2023-06-14T02:32:03;5.75;;;2.53;;
20391;SDS011;10355;53.688;10.078;2023-06-14T02:34:47;6.45;;;2.65;;
20391;SDS011;10355;53.688;10.078;2023-06-14T02:37:31;4.53;;;2.65;;
20391;SDS011;10355;53.688;10.078;2023-06-14T02:40:13;6.68;;;2.72;;
20391;SDS011;10355;53.688;10.078;2023-06-14T02:42:56;4.38;;;2.70;;
20391;SDS011;10355;53.688;10.078;2023-06-14T02:45:40;3.28;;;2.35;;
20391;SDS011;10355;53.688;10.078;2023-06-14T02:48:23;5.28;;;2.30;;
20391;SDS011;10355;53.688;10.078;2023-06-14T02:51:06;4.78;;;2.33;;
20391;SDS011;10355;53.688;10.078;2023-06-14T02:53:49;3.88;;;2.20;;
20391;SDS011;10355;53.688;10.078;2023-06-14T02:56:32;7.40;;;2.42;;
20391;SDS011;10355;53.688;10.078;2023-06-14T02:59:15;4.93;;;2.40;;
20391;SDS011;10355;53.688;10.078;2023-06-14T03:01:59;4.88;;;2.67;;
20391;SDS011;10355;53.688;10.078;2023-06-14T03:04:42;4.70;;;2.50;;
20391;SDS011;10355;53.688;10.078;2023-06-14T03:07:28;4.15;;;2.30;;
20391;SDS011;10355;53.688;10.078;2023-06-14T03:10:12;6.03;;;2.65;;
20391;SDS011;10355;53.688;10.078;2023-06-14T03:12:58;5.47;;;2.63;;
20391;SDS011;10355;53.688;10.078;2023-06-14T03:15:41;4.65;;;2.35;;
20391;SDS011;10355;53.688;10.078;2023-06-14T03:18:25;6.57;;;2.50;;
20391;SDS011;10355;53.688;10.078;2023-06-14T03:21:10;5.55;;;2.40;;
20391;SDS011;10355;53.688;10.078;2023-06-14T03:23:56;4.22;;;2.17;;
20391;SDS011;10355;53.688;10.078;2023-06-14T03:26:39;6.30;;;2.45;;
20391;SDS011;10355;53.688;10.078;2023-06-14T03:29:23;5.03;;;2.13;;
20391;SDS011;10355;53.688;10.078;2023-06-14T03:32:06;5.63;;;2.20;;
20391;SDS011;10355;53.688;10.078;2023-06-14T03:34:53;5.22;;;2.50;;
20391;SDS011;10355;53.688;10.078;2023-06-14T03:37:38;6.47;;;2.65;;
20391;SDS011;10355;53.688;10.078;2023-06-14T03:40:21;5.53;;;2.50;;
20391;SDS011;10355;53.688;10.078;2023-06-14T03:43:09;5.82;;;2.50;;
20391;SDS011;10355;53.688;10.078;2023-06-14T03:45:53;5.13;;;2.40;;
20391;SDS011;10355;53.688;10.078;2023-06-14T03:48:37;7.82;;;2.80;;
20391;SDS011;10355;53.688;10.078;2023-06-14T03:51:22;4.93;;;2.58;;
20391;SDS011;10355;53.688;10.078;2023-06-14T03:54:07;5.00;;;2.33;;
20391;SDS011;10355;53.688;10.078;2023-06-14T03:56:52;5.82;;;2.72;;
20391;SDS011;10355;53.688;10.078;2023-06-14T03:59:35;4.32;;;2.55;;
20391;SDS011;10355;53.688;10.078;2023-06-14T04:02:18;7.00;;;2.90;;
20391;SDS011;10355;53.688;10.078;2023-06-14T04:05:01;5.28;;;2.40;;
20391;SDS011;10355;53.688;10.078;2023-06-14T04:07:46;4.53;;;2.67;;
20391;SDS011;10355;53.688;10.078;2023-06-14T04:10:30;4.65;;;2.53;;
20391;SDS011;10355;53.688;10.078;2023-06-14T04:13:12;5.97;;;2.83;;
20391;SDS011;10355;53.688;10.078;2023-06-14T04:15:56;4.18;;;2.60;;
20391;SDS011;10355;53.688;10.078;2023-06-14T04:18:46;4.60;;;2.85;;
20391;SDS011;10355;53.688;10.078;2023-06-14T04:21:29;6.88;;;2.88;;
20391;SDS011;10355;53.688;10.078;2023-06-14T04:24:15;5.05;;;2.72;;
20391;SDS011;10355;53.688;10.078;2023-06-14T04:27:01;6.07;;;3.13;;
20391;SDS011;10355;53.688;10.078;2023-06-14T04:29:44;5.63;;;3.00;;
20391;SDS011;10355;53.688;10.078;2023-06-14T04:32:30;5.72;;;3.10;;
20391;SDS011;10355;53.688;10.078;2023-06-14T04:35:15;5.78;;;2.80;;
20391;SDS011;10355;53.688;10.078;2023-06-14T04:38:00;6.15;;;3.03;;
20391;SDS011;10355;53.688;10.078;2023-06-14T04:40:45;4.65;;;2.58;;
20391;SDS011;10355;53.688;10.078;2023-06-14T04:43:31;6.18;;;2.97;;
20391;SDS011;10355;53.688;10.078;2023-06-14T04:46:20;5.10;;;2.85;;
20391;SDS011;10355;53.688;10.078;2023-06-14T04:49:03;4.80;;;2.60;;
20391;SDS011;10355;53.688;10.078;2023-06-14T04:51:46;4.85;;;2.80;;
20391;SDS011;10355;53.688;10.078;2023-06-14T04:54:32;6.60;;;2.75;;
20391;SDS011;10355;53.688;10.078;2023-06-14T04:57:18;4.00;;;2.70;;
20391;SDS011;10355;53.688;10.078;2023-06-14T05:00:05;6.00;;;2.50;;
20391;SDS011;10355;53.688;10.078;2023-06-14T05:02:49;4.93;;;2.50;;
20391;SDS011;10355;53.688;10.078;2023-06-14T05:05:35;8.35;;;2.70;;
20391;SDS011;10355;53.688;10.078;2023-06-14T05:08:18;6.18;;;2.65;;
20391;SDS011;10355;53.688;10.078;2023-06-14T05:11:02;5.00;;;2.58;;
20391;SDS011;10355;53.688;10.078;2023-06-14T05:13:46;5.72;;;2.70;;
20391;SDS011;10355;53.688;10.078;2023-06-14T05:16:29;7.38;;;2.60;;
20391;SDS011;10355;53.688;10.078;2023-06-14T05:19:12;6.13;;;2.83;;
20391;SDS011;10355;53.688;10.078;2023-06-14T05:21:55;7.22;;;2.67;;
20391;SDS011;10355;53.688;10.078;2023-06-14T05:24:38;8.45;;;2.80;;
20391;SDS011;10355;53.688;10.078;2023-06-14T05:27:20;6.15;;;3.00;;
20391;SDS011;10355;53.688;10.078;2023-06-14T05:30:05;5.32;;;2.50;;
20391;SDS011;10355;53.688;10.078;2023-06-14T05:32:48;3.72;;;2.15;;
20391;SDS011;10355;53.688;10.078;2023-06-14T05:35:31;5.65;;;2.92;;
20391;SDS011;10355;53.688;10.078;2023-06-14T05:38:14;6.80;;;2.50;;
20391;SDS011;10355;53.688;10.078;2023-06-14T05:40:57;5.07;;;2.60;;
20391;SDS011;10355;53.688;10.078;2023-06-14T05:43:41;8.00;;;2.42;;
20391;SDS011;10355;53.688;10.078;2023-06-14T05:46:25;5.45;;;2.58;;
20391;SDS011;10355;53.688;10.078;2023-06-14T05:49:08;4.82;;;2.42;;
20391;SDS011;10355;53.688;10.078;2023-06-14T05:51:50;5.22;;;2.28;;
20391;SDS011;10355;53.688;10.078;2023-06-14T05:54:33;7.85;;;2.35;;
20391;SDS011;10355;53.688;10.078;2023-06-14T05:57:16;5.55;;;2.63;;
20391;SDS011;10355;53.688;10.078;2023-06-14T05:59:59;6.22;;;2.42;;
20391;SDS011;10355;53.688;10.078;2023-06-14T06:02:53;4.63;;;2.40;;
20391;SDS011;10355;53.688;10.078;2023-06-14T06:05:38;7.32;;;2.47;;
20391;SDS011;10355;53.688;10.078;2023-06-14T06:08:21;4.80;;;2.67;;
20391;SDS011;10355;53.688;10.078;2023-06-14T06:11:04;3.70;;;1.73;;
20391;SDS011;10355;53.688;10.078;2023-06-14T06:13:47;5.15;;;2.20;;
20391;SDS011;10355;53.688;10.078;2023-06-14T06:16:29;3.90;;;2.10;;
20391;SDS011;10355;53.688;10.078;2023-06-14T06:19:13;4.85;;;2.10;;
20391;SDS011;10355;53.688;10.078;2023-06-14T06:21:56;7.63;;;2.33;;
20391;SDS011;10355;53.688;10.078;2023-06-14T06:24:39;4.97;;;2.03;;
20391;SDS011;10355;53.688;10.078;2023-06-14T06:27:24;4.35;;;2.03;;
20391;SDS011;10355;53.688;10.078;2023-06-14T06:30:07;5.30;;;1.88;;
20391;SDS011;10355;53.688;10.078;2023-06-14T06:32:50;5.10;;;2.05;;
20391;SDS011;10355;53.688;10.078;2023-06-14T06:35:34;2.92;;;1.85;;
20391;SDS011;10355;53.688;10.078;2023-06-14T06:38:17;6.85;;;2.00;;
20391;SDS011;10355;53.688;10.078;2023-06-14T06:41:00;5.38;;;1.85;;
20391;SDS011;10355;53.688;10.078;2023-06-14T06:43:42;5.10;;;2.13;;
20391;SDS011;10355;53.688;10.078;2023-06-14T06:46:25;3.72;;;2.00;;
20391;SDS011;10355;53.688;10.078;2023-06-14T06:49:08;3.67;;;2.03;;
20391;SDS011;10355;53.688;10.078;2023-06-14T06:52:01;4.35;;;2.00;;
20391;SDS011;10355;53.688;10.078;2023-06-14T06:54:44;5.28;;;2.00;;
20391;SDS011;10355;53.688;10.078;2023-06-14T06:57:27;4.90;;;2.08;;
20391;SDS011;10355;53.688;10.078;2023-06-14T07:00:10;3.70;;;1.80;;
20391;SDS011;10355;53.688;10.078;2023-06-14T07:02:55;3.90;;;1.70;;
20391;SDS011;10355;53.688;10.078;2023-06-14T07:05:38;2.92;;;1.65;;
20391;SDS011;10355;53.688;10.078;2023-06-14T07:08:22;3.97;;;1.90;;
20391;SDS011;10355;53.688;10.078;2023-06-14T07:11:05;3.22;;;1.90;;
20391;SDS011;10355;53.688;10.078;2023-06-14T07:13:48;4.15;;;1.73;;
20391;SDS011;10355;53.688;10.078;2023-06-14T07:16:31;5.30;;;1.80;;
20391;SDS011;10355;53.688;10.078;2023-06-14T07:19:14;3.75;;;1.80;;
20391;SDS011;10355;53.688;10.078;2023-06-14T07:21:57;3.45;;;1.77;;
20391;SDS011;10355;53.688;10.078;2023-06-14T07:24:41;3.85;;;1.85;;
20391;SDS011;10355;53.688;10.078;2023-06-14T07:27:24;5.07;;;1.83;;
20391;SDS011;10355;53.688;10.078;2023-06-14T07:30:08;2.58;;;1.42;;
20391;SDS011;10355;53.688;10.078;2023-06-14T07:32:51;4.18;;;1.80;;
20391;SDS011;10355;53.688;10.078;2023-06-14T07:35:34;5.50;;;1.65;;
20391;SDS011;10355;53.688;10.078;2023-06-14T07:38:16;4.07;;;1.75;;
20391;SDS011;10355;53.688;10.078;2023-06-14T07:41:01;3.92;;;1.90;;
20391;SDS011;10355;53.688;10.078;2023-06-14T07:43:43;3.38;;;1.42;;
20391;SDS011;10355;53.688;10.078;2023-06-14T07:46:26;4.95;;;1.70;;
20391;SDS011;10355;53.688;10.078;2023-06-14T07:49:09;5.13;;;1.75;;
20391;SDS011;10355;53.688;10.078;2023-06-14T07:51:52;4.50;;;2.15;;
20391;SDS011;10355;53.688;10.078;2023-06-14T07:54:35;4.63;;;1.75;;
20391;SDS011;10355;53.688;10.078;2023-06-14T07:57:19;5.78;;;1.90;;
20391;SDS011;10355;53.688;10.078;2023-06-14T08:00:02;3.95;;;1.70;;
20391;SDS011;10355;53.688;10.078;2023-06-14T08:02:52;2.83;;;1.70;;
20391;SDS011;10355;53.688;10.078;2023-06-14T08:05:42;2.40;;;2.00;;
20391;SDS011;10355;53.688;10.078;2023-06-14T08:08:24;3.25;;;1.83;;
20391;SDS011;10355;53.688;10.078;2023-06-14T08:11:07;3.03;;;1.77;;
20391;SDS011;10355;53.688;10.078;2023-06-14T08:13:51;3.05;;;1.88;;
20391;SDS011;10355;53.688;10.078;2023-06-14T08:16:34;2.85;;;1.70;;
20391;SDS011;10355;53.688;10.078;2023-06-14T08:19:17;4.57;;;1.83;;
20391;SDS011;10355;53.688;10.078;2023-06-14T08:22:01;2.75;;;1.75;;
20391;SDS011;10355;53.688;10.078;2023-06-14T08:24:45;4.85;;;2.25;;
20391;SDS011;10355;53.688;10.078;2023-06-14T08:27:27;4.88;;;1.48;;
20391;SDS011;10355;53.688;10.078;2023-06-14T08:30:13;7.95;;;2.00;;
20391;SDS011;10355;53.688;10.078;2023-06-14T08:32:56;2.58;;;1.52;;
20391;SDS011;10355;53.688;10.078;2023-06-14T08:35:56;3.58;;;1.77;;
20391;SDS011;10355;53.688;10.078;2023-06-14T08:38:39;3.13;;;1.60;;
20391;SDS011;10355;53.688;10.078;2023-06-14T08:41:22;6.60;;;1.85;;
20391;SDS011;10355;53.688;10.078;2023-06-14T08:44:06;5.25;;;1.80;;
20391;SDS011;10355;53.688;10.078;2023-06-14T08:46:50;4.25;;;1.77;;
20391;SDS011;10355;53.688;10.078;2023-06-14T08:49:33;2.97;;;1.80;;
20391;SDS011;10355;53.688;10.078;2023-06-14T08:52:19;4.78;;;1.90;;
20391;SDS011;10355;53.688;10.078;2023-06-14T08:55:04;5.13;;;1.90;;
20391;SDS011;10355;53.688;10.078;2023-06-14T08:57:47;5.07;;;1.60;;
20391;SDS011;10355;53.688;10.078;2023-06-14T09:00:30;3.42;;;1.80;;
20391;SDS011;10355;53.688;10.078;2023-06-14T09:03:16;3.03;;;1.70;;
20391;SDS011;10355;53.688;10.078;2023-06-14T09:05:59;3.33;;;1.90;;
20391;SDS011;10355;53.688;10.078;2023-06-14T09:08:42;3.60;;;1.95;;
20391;SDS011;10355;53.688;10.078;2023-06-14T09:11:26;3.15;;;1.75;;
20391;SDS011;10355;53.688;10.078;2023-06-14T09:14:10;6.38;;;2.03;;
20391;SDS011;10355;53.688;10.078;2023-06-14T09:16:53;4.20;;;2.03;;
20391;SDS011;10355;53.688;10.078;2023-06-14T09:19:38;4.20;;;2.00;;
20391;SDS011;10355;53.688;10.078;2023-06-14T09:22:21;3.50;;;2.00;;
20391;SDS011;10355;53.688;10.078;2023-06-14T09:25:04;4.20;;;1.90;;
20391;SDS011;10355;53.688;10.078;2023-06-14T09:27:47;3.55;;;2.25;;
20391;SDS011;10355;53.688;10.078;2023-06-14T09:30:30;4.05;;;2.00;;
20391;SDS011;10355;53.688;10.078;2023-06-14T09:33:16;6.30;;;2.10;;
20391;SDS011;10355;53.688;10.078;2023-06-14T09:36:00;2.45;;;1.80;;
20391;SDS011;10355;53.688;10.078;2023-06-14T09:38:51;7.60;;;2.10;;
20391;SDS011;10355;53.688;10.078;2023-06-14T09:41:34;4.80;;;2.00;;
20391;SDS011;10355;53.688;10.078;2023-06-14T09:44:17;3.33;;;1.88;;
20391;SDS011;10355;53.688;10.078;2023-06-14T09:47:02;3.97;;;2.15;;
20391;SDS011;10355;53.688;10.078;2023-06-14T09:49:45;6.13;;;1.95;;
20391;SDS011;10355;53.688;10.078;2023-06-14T09:52:29;7.57;;;2.13;;
20391;SDS011;10355;53.688;10.078;2023-06-14T09:55:13;4.10;;;1.77;;
20391;SDS011;10355;53.688;10.078;2023-06-14T09:57:56;3.72;;;2.28;;
20391;SDS011;10355;53.688;10.078;2023-06-14T10:00:39;3.08;;;2.00;;
20391;SDS011;10355;53.688;10.078;2023-06-14T10:03:24;6.55;;;2.10;;
20391;SDS011;10355;53.688;10.078;2023-06-14T10:06:08;4.97;;;2.25;;
20391;SDS011;10355;53.688;10.078;2023-06-14T10:08:52;5.15;;;1.65;;
20391;SDS011;10355;53.688;10.078;2023-06-14T10:11:38;6.30;;;2.25;;
20391;SDS011;10355;53.688;10.078;2023-06-14T10:14:25;5.20;;;1.95;;
20391;SDS011;10355;53.688;10.078;2023-06-14T10:17:10;5.50;;;2.03;;
20391;SDS011;10355;53.688;10.078;2023-06-14T10:19:55;2.80;;;1.98;;
20391;SDS011;10355;53.688;10.078;2023-06-14T10:22:40;6.00;;;1.77;;
20391;SDS011;10355;53.688;10.078;2023-06-14T10:25:30;2.97;;;1.90;;
20391;SDS011;10355;53.688;10.078;2023-06-14T10:28:16;4.82;;;2.03;;
20391;SDS011;10355;53.688;10.078;2023-06-14T10:31:05;6.38;;;2.22;;
20391;SDS011;10355;53.688;10.078;2023-06-14T10:33:49;4.78;;;1.90;;
20391;SDS011;10355;53.688;10.078;2023-06-14T10:36:32;4.22;;;2.00;;
20391;SDS011;10355;53.688;10.078;2023-06-14T10:39:16;33.95;;;4.40;;
20391;SDS011;10355;53.688;10.078;2023-06-14T10:42:02;3.75;;;1.90;;
20391;SDS011;10355;53.688;10.078;2023-06-14T10:44:50;7.90;;;1.95;;
20391;SDS011;10355;53.688;10.078;2023-06-14T10:47:34;3.10;;;2.10;;
20391;SDS011;10355;53.688;10.078;2023-06-14T10:50:24;2.67;;;1.85;;
20391;SDS011;10355;53.688;10.078;2023-06-14T10:53:21;5.43;;;2.20;;
20391;SDS011;10355;53.688;10.078;2023-06-14T10:56:06;2.92;;;1.77;;
20391;SDS011;10355;53.688;10.078;2023-06-14T10:58:50;6.25;;;1.90;;
20391;SDS011;10355;53.688;10.078;2023-06-14T11:01:35;6.85;;;1.80;;
20391;SDS011;10355;53.688;10.078;2023-06-14T11:04:20;2.35;;;1.75;;
20391;SDS011;10355;53.688;10.078;2023-06-14T11:07:05;3.67;;;1.95;;
20391;SDS011;10355;53.688;10.078;2023-06-14T11:09:57;4.50;;;2.10;;
20391;SDS011;10355;53.688;10.078;2023-06-14T11:12:47;4.03;;;2.08;;
20391;SDS011;10355;53.688;10.078;2023-06-14T11:15:31;2.88;;;1.88;;
20391;SDS011;10355;53.688;10.078;2023-06-14T11:18:14;6.13;;;2.20;;
20391;SDS011;10355;53.688;10.078;2023-06-14T11:20:58;2.65;;;1.75;;
20391;SDS011;10355;53.688;10.078;2023-06-14T11:23:41;6.30;;;1.95;;
20391;SDS011;10355;53.688;10.078;2023-06-14T11:26:25;4.28;;;1.95;;
20391;SDS011;10355;53.688;10.078;2023-06-14T11:29:08;4.22;;;1.92;;
20391;SDS011;10355;53.688;10.078;2023-06-14T11:31:53;4.72;;;2.00;;
20391;SDS011;10355;53.688;10.078;2023-06-14T11:34:36;6.05;;;1.90;;
20391;SDS011;10355;53.688;10.078;2023-06-14T11:37:19;5.47;;;1.98;;
20391;SDS011;10355;53.688;10.078;2023-06-14T11:40:02;4.65;;;1.88;;
20391;SDS011;10355;53.688;10.078;2023-06-14T11:42:47;2.63;;;1.85;;
20391;SDS011;10355;53.688;10.078;2023-06-14T11:45:30;4.13;;;1.73;;
20391;SDS011;10355;53.688;10.078;2023-06-14T11:48:15;3.88;;;2.10;;
20391;SDS011;10355;53.688;10.078;2023-06-14T11:50:58;3.97;;;1.75;;
20391;SDS011;10355;53.688;10.078;2023-06-14T11:53:42;5.32;;;2.05;;
20391;SDS011;10355;53.688;10.078;2023-06-14T11:56:24;4.05;;;2.22;;
20391;SDS011;10355;53.688;10.078;2023-06-14T11:59:08;4.25;;;1.80;;
20391;SDS011;10355;53.688;10.078;2023-06-14T12:01:52;4.63;;;1.70;;
20391;SDS011;10355;53.688;10.078;2023-06-14T12:04:37;5.40;;;1.92;;
20391;SDS011;10355;53.688;10.078;2023-06-14T12:07:23;5.60;;;2.17;;
20391;SDS011;10355;53.688;10.078;2023-06-14T12:10:07;2.47;;;1.70;;
20391;SDS011;10355;53.688;10.078;2023-06-14T12:12:56;3.30;;;2.05;;
20391;SDS011;10355;53.688;10.078;2023-06-14T12:15:39;6.10;;;1.77;;
20391;SDS011;10355;53.688;10.078;2023-06-14T12:18:30;5.68;;;1.90;;
20391;SDS011;10355;53.688;10.078;2023-06-14T12:21:15;5.60;;;2.10;;
20391;SDS011;10355;53.688;10.078;2023-06-14T12:23:58;5.15;;;2.00;;
20391;SDS011;10355;53.688;10.078;2023-06-14T12:26:41;5.43;;;2.22;;
20391;SDS011;10355;53.688;10.078;2023-06-14T12:29:24;2.88;;;1.90;;
20391;SDS011;10355;53.688;10.078;2023-06-14T12:32:07;6.18;;;1.95;;
20391;SDS011;10355;53.688;10.078;2023-06-14T12:34:50;3.15;;;1.70;;
20391;SDS011;10355;53.688;10.078;2023-06-14T12:37:34;3.00;;;1.75;;
20391;SDS011;10355;53.688;10.078;2023-06-14T12:40:17;6.15;;;2.20;;
20391;SDS011;10355;53.688;10.078;2023-06-14T12:43:01;5.60;;;2.40;;
20391;SDS011;10355;53.688;10.078;2023-06-14T12:45:45;5.53;;;2.17;;
20391;SDS011;10355;53.688;10.078;2023-06-14T12:48:28;4.15;;;1.80;;
20391;SDS011;10355;53.688;10.078;2023-06-14T12:51:13;6.78;;;2.08;;
20391;SDS011;10355;53.688;10.078;2023-06-14T12:57:23;5.00;;;1.80;;
20391;SDS011;10355;53.688;10.078;2023-06-14T13:00:07;3.17;;;1.85;;
20391;SDS011;10355;53.688;10.078;2023-06-14T13:02:50;3.92;;;1.90;;
20391;SDS011;10355;53.688;10.078;2023-06-14T13:05:33;3.42;;;1.90;;
20391;SDS011;10355;53.688;10.078;2023-06-14T13:08:16;3.92;;;1.88;;
20391;SDS011;10355;53.688;10.078;2023-06-14T13:10:59;3.83;;;2.00;;
20391;SDS011;10355;53.688;10.078;2023-06-14T13:13:43;3.40;;;1.92;;
20391;SDS011;10355;53.688;10.078;2023-06-14T13:16:25;4.35;;;1.88;;
20391;SDS011;10355;53.688;10.078;2023-06-14T13:19:09;3.17;;;1.75;;
20391;SDS011;10355;53.688;10.078;2023-06-14T13:21:51;3.25;;;1.95;;
20391;SDS011;10355;53.688;10.078;2023-06-14T13:24:34;6.07;;;1.60;;
20391;SDS011;10355;53.688;10.078;2023-06-14T13:27:17;2.40;;;1.80;;
20391;SDS011;10355;53.688;10.078;2023-06-14T13:30:01;3.40;;;1.90;;
20391;SDS011;10355;53.688;10.078;2023-06-14T13:32:44;2.83;;;1.45;;
20391;SDS011;10355;53.688;10.078;2023-06-14T13:35:30;3.30;;;1.85;;
20391;SDS011;10355;53.688;10.078;2023-06-14T13:38:13;2.90;;;1.67;;
20391;SDS011;10355;53.688;10.078;2023-06-14T13:40:56;6.30;;;1.88;;
20391;SDS011;10355;53.688;10.078;2023-06-14T13:43:39;3.30;;;1.92;;
20391;SDS011;10355;53.688;10.078;2023-06-14T13:46:23;4.03;;;1.63;;
20391;SDS011;10355;53.688;10.078;2023-06-14T13:49:06;3.03;;;1.70;;
20391;SDS011;10355;53.688;10.078;2023-06-14T13:51:48;2.85;;;1.58;;
20391;SDS011;10355;53.688;10.078;2023-06-14T13:54:31;3.22;;;1.92;;
20391;SDS011;10355;53.688;10.078;2023-06-14T13:57:14;5.18;;;1.65;;
20391;SDS011;10355;53.688;10.078;2023-06-14T13:59:57;3.78;;;1.75;;
20391;SDS011;10355;53.688;10.078;2023-06-14T14:02:54;3.13;;;1.50;;
20391;SDS011;10355;53.688;10.078;2023-06-14T14:05:38;4.28;;;1.70;;
20391;SDS011;10355;53.688;10.078;2023-06-14T14:08:21;2.75;;;1.60;;
20391;SDS011;10355;53.688;10.078;2023-06-14T14:11:04;4.40;;;1.92;;
20391;SDS011;10355;53.688;10.078;2023-06-14T14:13:48;7.28;;;1.60;;
20391;SDS011;10355;53.688;10.078;2023-06-14T14:16:31;3.97;;;1.50;;
20391;SDS011;10355;53.688;10.078;2023-06-14T14:19:16;3.97;;;1.65;;
20391;SDS011;10355;53.688;10.078;2023-06-14T14:22:01;3.75;;;1.80;;
20391;SDS011;10355;53.688;10.078;2023-06-14T14:24:44;2.63;;;1.70;;
20391;SDS011;10355;53.688;10.078;2023-06-14T14:27:26;2.55;;;1.52;;
20391;SDS011;10355;53.688;10.078;2023-06-14T14:30:10;2.42;;;1.52;;
20391;SDS011;10355;53.688;10.078;2023-06-14T14:32:53;1.80;;;1.35;;
20391;SDS011;10355;53.688;10.078;2023-06-14T14:35:38;5.13;;;2.30;;
20391;SDS011;10355;53.688;10.078;2023-06-14T14:38:21;4.00;;;1.88;;
20391;SDS011;10355;53.688;10.078;2023-06-14T14:41:04;3.92;;;2.00;;
20391;SDS011;10355;53.688;10.078;2023-06-14T14:43:46;5.68;;;1.90;;
20391;SDS011;10355;53.688;10.078;2023-06-14T14:46:29;2.53;;;1.60;;
20391;SDS011;10355;53.688;10.078;2023-06-14T14:49:12;3.05;;;1.58;;
20391;SDS011;10355;53.688;10.078;2023-06-14T14:51:56;3.28;;;1.80;;
20391;SDS011;10355;53.688;10.078;2023-06-14T14:54:59;3.38;;;1.70;;
20391;SDS011;10355;53.688;10.078;2023-06-14T14:57:42;3.90;;;2.00;;
20391;SDS011;10355;53.688;10.078;2023-06-14T15:00:26;3.80;;;1.83;;
20391;SDS011;10355;53.688;10.078;2023-06-14T15:03:09;4.28;;;1.98;;
20391;SDS011;10355;53.688;10.078;2023-06-14T15:05:52;2.88;;;1.50;;
20391;SDS011;10355;53.688;10.078;2023-06-14T15:08:36;4.70;;;1.70;;
20391;SDS011;10355;53.688;10.078;2023-06-14T15:11:19;3.95;;;1.50;;
20391;SDS011;10355;53.688;10.078;2023-06-14T15:14:02;4.25;;;1.77;;
20391;SDS011;10355;53.688;10.078;2023-06-14T15:16:45;2.47;;;1.77;;
20391;SDS011;10355;53.688;10.078;2023-06-14T15:19:27;3.45;;;1.63;;
20391;SDS011;10355;53.688;10.078;2023-06-14T15:22:10;2.13;;;1.60;;
20391;SDS011;10355;53.688;10.078;2023-06-14T15:24:54;3.85;;;1.63;;
20391;SDS011;10355;53.688;10.078;2023-06-14T15:27:37;4.03;;;1.45;;
20391;SDS011;10355;53.688;10.078;2023-06-14T15:30:20;4.40;;;1.52;;
20391;SDS011;10355;53.688;10.078;2023-06-14T15:33:03;3.90;;;1.77;;
20391;SDS011;10355;53.688;10.078;2023-06-14T15:35:46;3.13;;;1.60;;
20391;SDS011;10355;53.688;10.078;2023-06-14T15:38:29;3.97;;;1.95;;
20391;SDS011;10355;53.688;10.078;2023-06-14T15:41:13;5.57;;;1.77;;
20391;SDS011;10355;53.688;10.078;2023-06-14T15:43:56;6.30;;;1.50;;
20391;SDS011;10355;53.688;10.078;2023-06-14T15:46:40;4.47;;;1.45;;
20391;SDS011;10355;53.688;10.078;2023-06-14T15:49:22;4.20;;;1.83;;
20391;SDS011;10355;53.688;10.078;2023-06-14T15:52:05;3.13;;;2.00;;
20391;SDS011;10355;53.688;10.078;2023-06-14T15:54:48;5.93;;;1.60;;
20391;SDS011;10355;53.688;10.078;2023-06-14T15:57:32;5.25;;;1.60;;
20391;SDS011;10355;53.688;10.078;2023-06-14T16:00:15;2.22;;;1.60;;
20391;SDS011;10355;53.688;10.078;2023-06-14T16:02:58;4.00;;;1.60;;
20391;SDS011;10355;53.688;10.078;2023-06-14T16:05:41;3.47;;;1.67;;
20391;SDS011;10355;53.688;10.078;2023-06-14T16:08:24;2.25;;;1.67;;
20391;SDS011;10355;53.688;10.078;2023-06-14T16:11:21;3.65;;;1.23;;
20391;SDS011;10355;53.688;10.078;2023-06-14T16:14:06;2.85;;;1.40;;
20391;SDS011;10355;53.688;10.078;2023-06-14T16:16:49;3.80;;;1.83;;